createdAt,value
2018-10-05T00:00:18.354Z,9.38
2018-10-05T00:01:18.381Z,9.38
2018-10-05T00:02:18.293Z,9.40
2018-10-05T00:03:18.301Z,9.42
2018-10-05T00:04:18.232Z,9.38
2018-10-05T00:05:18.258Z,9.44
2018-10-05T00:06:18.171Z,9.45
2018-10-05T00:07:18.221Z,9.40
2018-10-05T00:08:18.121Z,9.26
2018-10-05T00:09:23.050Z,9.35
2018-10-05T00:10:18.061Z,9.24
2018-10-05T00:11:18.138Z,9.27
2018-10-05T00:12:18.006Z,9.34
2018-10-05T00:13:20.133Z,9.30
2018-10-05T00:14:17.954Z,9.24
2018-10-05T00:15:18.977Z,9.26
2018-10-05T00:16:17.896Z,9.30
2018-10-05T00:17:17.972Z,9.30
2018-10-05T00:18:17.833Z,9.24
2018-10-05T00:19:19.928Z,9.30
2018-10-05T00:20:17.805Z,9.22
2018-10-05T00:21:17.794Z,9.26
2018-10-05T00:22:17.745Z,9.26
2018-10-05T00:23:18.733Z,9.30
2018-10-05T00:24:17.667Z,9.23
2018-10-05T00:25:28.469Z,9.30
2018-10-05T00:26:17.636Z,9.27
2018-10-05T00:27:17.625Z,9.15
2018-10-05T00:28:17.576Z,9.16
2018-10-05T00:29:18.562Z,9.20
2018-10-05T00:30:17.500Z,9.15
2018-10-05T00:31:23.495Z,9.13
2018-10-05T00:32:17.498Z,9.15
2018-10-05T00:33:18.490Z,9.12
2018-10-05T00:34:17.391Z,9.12
2018-10-05T00:35:21.993Z,9.08
2018-10-05T00:36:17.336Z,9.16
2018-10-05T00:37:17.393Z,9.12
2018-10-05T00:38:17.330Z,9.08
2018-10-05T00:39:18.342Z,9.01
2018-10-05T00:40:17.225Z,9.10
2018-10-05T00:41:19.258Z,9.06
2018-10-05T00:42:17.174Z,9.03
2018-10-05T00:43:17.241Z,9.06
2018-10-05T00:44:17.111Z,9.00
2018-10-05T00:45:18.170Z,8.97
2018-10-05T00:46:17.057Z,9.01
2018-10-05T00:47:17.051Z,9.08
2018-10-05T00:48:17.003Z,8.97
2018-10-05T00:49:23.008Z,9.00
2018-10-05T00:50:16.947Z,9.04
2018-10-05T00:51:17.998Z,9.06
2018-10-05T00:52:16.890Z,9.08
2018-10-05T00:53:22.549Z,8.96
2018-10-05T00:54:16.833Z,8.97
2018-10-05T00:55:21.509Z,9.03
2018-10-05T00:56:16.782Z,9.04
2018-10-05T00:57:27.563Z,9.00
2018-10-05T00:58:16.721Z,9.08
2018-10-05T00:59:28.496Z,9.01
2018-10-05T01:00:16.667Z,8.91
2018-10-05T01:01:28.508Z,8.88
2018-10-05T01:02:16.603Z,8.97
2018-10-05T01:03:17.673Z,8.98
2018-10-05T01:04:16.554Z,8.86
2018-10-05T01:05:29.566Z,8.86
2018-10-05T01:06:16.499Z,8.85
2018-10-05T01:07:22.514Z,8.85
2018-10-05T01:08:16.437Z,8.88
2018-10-05T01:09:18.539Z,8.88
2018-10-05T01:10:16.388Z,8.93
2018-10-05T01:11:16.480Z,8.88
2018-10-05T01:12:16.336Z,8.88
2018-10-05T01:13:16.386Z,8.89
2018-10-05T01:14:16.275Z,8.86
2018-10-05T01:15:16.290Z,8.86
2018-10-05T01:16:16.221Z,8.85
2018-10-05T01:17:16.306Z,8.83
2018-10-05T01:18:16.162Z,8.85
2018-10-05T01:19:16.219Z,8.79
2018-10-05T01:20:16.109Z,8.78
2018-10-05T01:21:16.124Z,8.75
2018-10-05T01:22:16.054Z,8.73
2018-10-05T01:23:16.151Z,8.73
2018-10-05T01:24:15.994Z,8.65
2018-10-05T01:25:16.058Z,8.73
2018-10-05T01:26:15.943Z,8.75
2018-10-05T01:27:15.969Z,8.73
2018-10-05T01:28:15.960Z,8.67
2018-10-05T01:29:15.882Z,8.75
2018-10-05T01:30:15.820Z,8.67
2018-10-05T01:31:15.892Z,8.64
2018-10-05T01:32:15.762Z,8.65
2018-10-05T01:33:16.822Z,8.70
2018-10-05T01:34:15.753Z,8.64
2018-10-05T01:35:15.713Z,8.70
2018-10-05T01:36:15.654Z,8.61
2018-10-05T01:37:15.724Z,8.63
2018-10-05T01:38:15.598Z,8.50
2018-10-05T01:39:15.633Z,8.49
2018-10-05T01:40:15.551Z,8.52
2018-10-05T01:41:15.546Z,8.50
2018-10-05T01:42:15.491Z,8.46
2018-10-05T01:43:15.609Z,8.46
2018-10-05T01:44:15.446Z,8.57
2018-10-05T01:45:15.473Z,8.49
2018-10-05T01:46:15.375Z,8.54
2018-10-05T01:47:15.380Z,8.45
2018-10-05T01:48:15.320Z,8.47
2018-10-05T01:49:15.409Z,8.50
2018-10-05T01:50:15.262Z,8.46
2018-10-05T01:51:15.307Z,8.52
2018-10-05T01:52:15.201Z,8.49
2018-10-05T01:53:15.219Z,8.42
2018-10-05T01:54:15.153Z,8.46
2018-10-05T01:55:15.230Z,8.52
2018-10-05T01:56:15.091Z,8.47
2018-10-05T01:57:15.143Z,8.45
2018-10-05T01:58:15.046Z,8.46
2018-10-05T01:59:15.060Z,8.52
2018-10-05T02:00:14.977Z,8.45
2018-10-05T02:01:14.974Z,8.39
2018-10-05T02:02:14.940Z,8.37
2018-10-05T02:03:14.983Z,8.34
2018-10-05T02:04:14.872Z,8.32
2018-10-05T02:05:14.893Z,8.32
2018-10-05T02:06:14.815Z,8.36
2018-10-05T02:07:14.805Z,8.25
2018-10-05T02:08:14.763Z,8.29
2018-10-05T02:09:14.832Z,8.27
2018-10-05T02:10:14.694Z,8.34
2018-10-05T02:12:00.900Z,8.24
2018-10-05T02:13:00.848Z,8.28
2018-10-05T02:14:00.810Z,8.36
2018-10-05T02:15:00.788Z,8.27
2018-10-05T02:16:00.773Z,8.28
2018-10-05T02:17:00.727Z,8.27
2018-10-05T02:18:00.699Z,8.24
2018-10-05T02:19:00.671Z,8.28
2018-10-05T02:20:00.644Z,8.22
2018-10-05T02:21:00.612Z,8.22
2018-10-05T02:22:00.587Z,8.25
2018-10-05T02:23:00.557Z,8.25
2018-10-05T02:24:00.530Z,8.25
2018-10-05T02:25:00.501Z,8.27
2018-10-05T02:26:00.490Z,8.32
2018-10-05T02:27:00.478Z,8.28
2018-10-05T02:28:00.425Z,8.25
2018-10-05T02:29:00.388Z,8.25
2018-10-05T02:30:00.370Z,8.28
2018-10-05T02:31:00.332Z,8.24
2018-10-05T02:32:00.304Z,8.28
2018-10-05T02:33:00.371Z,8.20
2018-10-05T02:34:00.253Z,8.21
2018-10-05T02:35:00.220Z,8.17
2018-10-05T02:36:00.198Z,8.18
2018-10-05T02:37:00.182Z,8.17
2018-10-05T02:38:00.129Z,8.14
2018-10-05T02:39:00.121Z,8.12
2018-10-05T02:40:00.082Z,8.18
2018-10-05T02:41:00.057Z,8.12
2018-10-05T02:42:00.020Z,8.17
2018-10-05T02:43:00.104Z,8.12
2018-10-05T02:43:59.970Z,8.14
2018-10-05T02:44:59.949Z,8.13
2018-10-05T02:45:59.908Z,8.12
2018-10-05T02:46:59.876Z,8.06
2018-10-05T02:47:59.859Z,8.06
2018-10-05T02:48:59.821Z,8.02
2018-10-05T02:49:59.792Z,8.03
2018-10-05T02:50:59.773Z,8.02
2018-10-05T02:51:59.741Z,8.06
2018-10-05T02:52:59.718Z,7.92
2018-10-05T02:53:59.681Z,8.03
2018-10-05T02:54:59.650Z,7.88
2018-10-05T02:55:59.732Z,7.92
2018-10-05T02:56:59.600Z,7.92
2018-10-05T02:57:59.654Z,7.92
2018-10-05T02:58:59.545Z,7.91
2018-10-05T02:59:59.518Z,7.99
2018-10-05T03:00:59.487Z,7.94
2018-10-05T03:01:59.468Z,7.95
2018-10-05T03:02:59.433Z,7.95
2018-10-05T03:03:59.399Z,8.02
2018-10-05T03:04:59.374Z,7.99
2018-10-05T03:05:59.360Z,7.91
2018-10-05T03:06:59.315Z,7.99
2018-10-05T03:07:59.285Z,7.91
2018-10-05T03:08:59.260Z,7.84
2018-10-05T03:09:59.228Z,7.81
2018-10-05T03:10:59.205Z,7.84
2018-10-05T03:11:59.172Z,7.82
2018-10-05T03:12:59.258Z,7.81
2018-10-05T03:13:59.121Z,7.81
2018-10-05T03:14:59.095Z,7.81
2018-10-05T03:15:59.059Z,7.84
2018-10-05T03:16:59.027Z,7.85
2018-10-05T03:17:59.005Z,7.81
2018-10-05T03:18:59.072Z,7.84
2018-10-05T03:19:58.980Z,7.77
2018-10-05T03:20:58.943Z,7.84
2018-10-05T03:21:58.889Z,7.82
2018-10-05T03:22:58.859Z,7.82
2018-10-05T03:23:58.846Z,7.77
2018-10-05T03:24:58.808Z,7.74
2018-10-05T03:25:58.780Z,7.67
2018-10-05T03:26:58.757Z,7.76
2018-10-05T03:27:58.727Z,7.71
2018-10-05T03:28:58.700Z,7.63
2018-10-05T03:29:58.672Z,7.66
2018-10-05T03:30:58.635Z,7.67
2018-10-05T03:31:58.643Z,7.71
2018-10-05T03:32:58.584Z,7.62
2018-10-05T03:33:58.556Z,7.62
2018-10-05T03:34:58.525Z,7.60
2018-10-05T03:35:58.497Z,7.63
2018-10-05T03:36:58.474Z,7.63
2018-10-05T03:37:58.444Z,7.69
2018-10-05T03:38:58.420Z,7.63
2018-10-05T03:39:58.499Z,7.57
2018-10-05T03:40:58.366Z,7.58
2018-10-05T03:41:58.335Z,7.58
2018-10-05T03:42:58.309Z,7.54
2018-10-05T03:43:58.275Z,7.62
2018-10-05T03:44:58.243Z,7.57
2018-10-05T03:45:58.229Z,7.60
2018-10-05T03:46:58.239Z,7.55
2018-10-05T03:47:58.156Z,7.58
2018-10-05T03:48:58.138Z,7.55
2018-10-05T03:49:58.111Z,7.57
2018-10-05T03:50:58.081Z,7.54
2018-10-05T03:51:58.048Z,7.57
2018-10-05T03:52:58.023Z,7.54
2018-10-05T03:53:57.990Z,7.60
2018-10-05T03:54:57.966Z,7.48
2018-10-05T03:55:57.934Z,7.48
2018-10-05T03:56:57.913Z,7.45
2018-10-05T03:57:57.889Z,7.44
2018-10-05T03:58:57.860Z,7.50
2018-10-05T03:59:57.825Z,7.41
2018-10-05T04:00:57.803Z,7.41
2018-10-05T04:01:57.772Z,7.42
2018-10-05T04:02:57.746Z,7.42
2018-10-05T04:03:57.721Z,7.37
2018-10-05T04:04:57.689Z,7.37
2018-10-05T04:05:57.664Z,7.41
2018-10-05T04:06:57.664Z,7.36
2018-10-05T04:07:57.607Z,7.41
2018-10-05T04:08:57.577Z,7.51
2018-10-05T04:09:57.557Z,7.42
2018-10-05T04:10:57.531Z,7.32
2018-10-05T04:11:57.501Z,7.33
2018-10-05T04:12:57.471Z,7.36
2018-10-05T04:13:57.447Z,7.37
2018-10-05T04:14:57.412Z,7.32
2018-10-05T04:15:57.392Z,7.37
2018-10-05T04:16:57.359Z,7.39
2018-10-05T04:17:57.326Z,7.39
2018-10-05T04:18:57.331Z,7.34
2018-10-05T04:19:57.277Z,7.37
2018-10-05T04:20:57.246Z,7.32
2018-10-05T04:21:57.215Z,7.42
2018-10-05T04:22:57.195Z,7.29
2018-10-05T04:23:58.186Z,7.33
2018-10-05T04:24:57.154Z,7.33
2018-10-05T04:25:57.117Z,7.36
2018-10-05T04:26:57.072Z,7.39
2018-10-05T04:27:57.093Z,7.32
2018-10-05T04:28:57.051Z,7.30
2018-10-05T04:30:12.815Z,7.32
2018-10-05T04:30:56.967Z,7.23
2018-10-05T04:32:17.939Z,7.30
2018-10-05T04:32:56.914Z,7.32
2018-10-05T04:33:56.971Z,7.27
2018-10-05T04:34:56.852Z,7.23
2018-10-05T04:36:01.795Z,7.26
2018-10-05T04:36:56.802Z,7.24
2018-10-05T04:38:02.834Z,7.24
2018-10-05T04:38:56.729Z,7.14
2018-10-05T04:40:01.334Z,7.21
2018-10-05T04:40:56.678Z,7.21
2018-10-05T04:41:58.756Z,7.19
2018-10-05T04:42:56.642Z,7.18
2018-10-05T04:43:57.655Z,7.16
2018-10-05T04:44:56.582Z,7.27
2018-10-05T04:46:02.280Z,7.19
2018-10-05T04:46:56.514Z,7.12
2018-10-05T04:48:01.265Z,7.12
2018-10-05T04:48:56.475Z,7.11
2018-10-05T04:49:56.423Z,7.16
2018-10-05T04:50:56.404Z,7.05
2018-10-05T04:51:56.394Z,7.18
2018-10-05T04:52:56.354Z,7.09
2018-10-05T04:53:56.413Z,7.11
2018-10-05T04:54:56.300Z,7.18
2018-10-05T04:55:56.273Z,7.09
2018-10-05T04:56:56.284Z,7.23
2018-10-05T04:57:56.209Z,7.05
2018-10-05T04:58:56.179Z,7.12
2018-10-05T04:59:56.161Z,6.96
2018-10-05T05:00:56.128Z,7.12
2018-10-05T05:01:56.116Z,7.07
2018-10-05T05:02:56.074Z,7.07
2018-10-05T05:03:56.059Z,7.12
2018-10-05T05:04:56.021Z,7.01
2018-10-05T05:05:55.993Z,6.96
2018-10-05T05:06:55.969Z,7.07
2018-10-05T05:07:55.937Z,7.04
2018-10-05T05:08:55.906Z,7.09
2018-10-05T05:09:55.898Z,7.09
2018-10-05T05:10:55.869Z,7.15
2018-10-05T05:11:55.827Z,7.04
2018-10-05T05:12:55.793Z,7.09
2018-10-05T05:13:55.822Z,7.16
2018-10-05T05:14:55.827Z,7.11
2018-10-05T05:15:56.036Z,7.14
2018-10-05T05:16:55.693Z,7.05
2018-10-05T05:17:55.665Z,6.97
2018-10-05T05:18:55.628Z,7.11
2018-10-05T05:19:55.618Z,7.04
2018-10-05T05:20:55.578Z,7.05
2018-10-05T05:21:55.548Z,7.08
2018-10-05T05:22:55.515Z,6.97
2018-10-05T05:23:55.492Z,7.04
2018-10-05T05:24:55.472Z,7.04
2018-10-05T05:25:55.455Z,7.01
2018-10-05T05:26:55.434Z,7.01
2018-10-05T05:27:55.377Z,6.96
2018-10-05T05:28:55.357Z,7.09
2018-10-05T05:29:55.324Z,7.01
2018-10-05T05:30:55.298Z,7.07
2018-10-05T05:31:55.287Z,6.93
2018-10-05T05:32:55.249Z,7.05
2018-10-05T05:33:55.234Z,7.09
2018-10-05T05:34:55.188Z,7.08
2018-10-05T05:35:55.163Z,6.97
2018-10-05T05:36:55.157Z,7.07
2018-10-05T05:37:55.164Z,7.05
2018-10-05T05:38:55.075Z,6.99
2018-10-05T05:39:55.044Z,7.09
2018-10-05T05:40:55.039Z,7.05
2018-10-05T05:41:54.981Z,7.08
2018-10-05T05:42:54.956Z,7.11
2018-10-05T05:43:54.931Z,7.05
2018-10-05T05:44:54.905Z,7.09
2018-10-05T05:45:54.873Z,7.09
2018-10-05T05:46:54.900Z,7.08
2018-10-05T05:47:54.826Z,7.05
2018-10-05T05:48:54.788Z,7.12
2018-10-05T05:49:54.772Z,7.18
2018-10-05T05:50:54.738Z,7.23
2018-10-05T05:51:54.707Z,7.16
2018-10-05T05:52:54.758Z,7.19
2018-10-05T05:53:54.668Z,7.07
2018-10-05T05:54:54.679Z,7.14
2018-10-05T05:55:54.589Z,7.15
2018-10-05T05:56:54.561Z,7.12
2018-10-05T05:57:54.540Z,7.18
2018-10-05T05:58:54.507Z,7.09
2018-10-05T05:59:54.484Z,7.11
2018-10-05T06:00:54.511Z,7.12
2018-10-05T06:01:54.520Z,7.21
2018-10-05T06:02:54.399Z,7.21
2018-10-05T06:03:54.421Z,7.15
2018-10-05T06:04:54.378Z,7.24
2018-10-05T06:05:55.336Z,7.12
2018-10-05T06:06:54.302Z,7.19
2018-10-05T06:07:56.381Z,7.29
2018-10-05T06:08:54.270Z,7.23
2018-10-05T06:09:59.878Z,7.44
2018-10-05T06:10:54.173Z,7.37
2018-10-05T06:11:59.906Z,7.50
2018-10-05T06:12:54.116Z,7.45
2018-10-05T06:13:55.253Z,7.50
2018-10-05T06:14:54.105Z,7.48
2018-10-05T06:15:56.213Z,7.47
2018-10-05T06:16:54.016Z,7.42
2018-10-05T06:17:56.032Z,7.41
2018-10-05T06:18:53.971Z,7.45
2018-10-05T06:19:53.939Z,7.50
2018-10-05T06:20:53.910Z,7.47
2018-10-05T06:21:54.046Z,7.50
2018-10-05T06:22:53.873Z,7.47
2018-10-05T06:23:54.837Z,7.54
2018-10-05T06:24:53.797Z,7.50
2018-10-05T06:25:53.844Z,7.47
2018-10-05T06:26:53.733Z,7.48
2018-10-05T06:27:53.737Z,7.58
2018-10-05T06:28:53.668Z,7.63
2018-10-05T06:29:53.778Z,7.62
2018-10-05T06:30:53.753Z,7.63
2018-10-05T06:31:53.663Z,7.69
2018-10-05T06:32:53.636Z,7.62
2018-10-05T06:33:53.598Z,7.73
2018-10-05T06:34:53.505Z,7.77
2018-10-05T06:35:53.585Z,7.70
2018-10-05T06:36:53.459Z,7.73
2018-10-05T06:37:53.527Z,7.82
2018-10-05T06:38:53.415Z,7.82
2018-10-05T06:39:53.442Z,7.86
2018-10-05T06:40:53.364Z,7.82
2018-10-05T06:41:53.525Z,7.81
2018-10-05T06:42:53.353Z,7.91
2018-10-05T06:43:53.351Z,7.94
2018-10-05T06:44:53.219Z,8.03
2018-10-05T06:45:53.242Z,7.92
2018-10-05T06:46:53.192Z,8.09
2018-10-05T06:47:53.161Z,7.99
2018-10-05T06:48:53.137Z,8.13
2018-10-05T06:49:53.198Z,8.10
2018-10-05T06:50:53.049Z,8.20
2018-10-05T06:51:53.134Z,8.10
2018-10-05T06:52:53.004Z,8.20
2018-10-05T06:53:53.051Z,8.27
2018-10-05T06:54:52.939Z,8.25
2018-10-05T06:55:52.997Z,8.36
2018-10-05T06:56:52.920Z,8.45
2018-10-05T06:57:52.980Z,8.47
2018-10-05T06:58:52.831Z,8.46
2018-10-05T06:59:52.940Z,8.47
2018-10-05T07:00:52.785Z,8.49
2018-10-05T07:01:52.871Z,8.54
2018-10-05T07:02:52.712Z,8.61
2018-10-05T07:03:52.708Z,8.70
2018-10-05T07:04:52.666Z,8.67
2018-10-05T07:05:52.711Z,8.63
2018-10-05T07:06:52.600Z,8.70
2018-10-05T07:07:52.745Z,8.75
2018-10-05T07:08:52.540Z,8.73
2018-10-05T07:09:52.540Z,8.80
2018-10-05T07:10:52.500Z,8.93
2018-10-05T07:11:52.563Z,8.91
2018-10-05T07:12:52.424Z,9.06
2018-10-05T07:13:52.455Z,8.97
2018-10-05T07:14:52.383Z,8.98
2018-10-05T07:15:52.482Z,9.08
2018-10-05T07:16:52.361Z,9.13
2018-10-05T07:17:52.383Z,9.12
2018-10-05T07:18:52.294Z,9.12
2018-10-05T07:19:52.294Z,9.23
2018-10-05T07:20:52.215Z,9.26
2018-10-05T07:22:44.222Z,9.27
2018-10-05T07:23:44.197Z,9.32
2018-10-05T07:24:44.135Z,9.35
2018-10-05T07:25:44.109Z,9.59
2018-10-05T07:26:44.158Z,9.49
2018-10-05T07:27:44.050Z,9.63
2018-10-05T07:28:44.188Z,9.60
2018-10-05T07:29:43.986Z,9.58
2018-10-05T07:30:44.063Z,9.75
2018-10-05T07:31:43.950Z,9.81
2018-10-05T07:32:45.109Z,9.88
2018-10-05T07:33:43.884Z,9.86
2018-10-05T07:34:43.891Z,9.96
2018-10-05T07:35:43.842Z,9.98
2018-10-05T07:36:43.817Z,10.04
2018-10-05T07:37:43.780Z,10.16
2018-10-05T07:38:43.817Z,10.25
2018-10-05T07:39:43.717Z,10.26
2018-10-05T07:40:43.735Z,10.32
2018-10-05T07:41:43.670Z,10.38
2018-10-05T07:42:43.743Z,10.36
2018-10-05T07:43:43.600Z,10.54
2018-10-05T07:44:43.679Z,10.49
2018-10-05T07:45:43.546Z,10.55
2018-10-05T07:46:43.537Z,10.68
2018-10-05T07:47:43.484Z,10.76
2018-10-05T07:48:43.448Z,10.86
2018-10-05T07:49:43.427Z,10.86
2018-10-05T07:50:43.572Z,10.94
2018-10-05T07:51:43.427Z,10.99
2018-10-05T07:52:43.466Z,10.99
2018-10-05T07:53:43.326Z,11.01
2018-10-05T07:54:43.286Z,11.11
2018-10-05T07:55:43.390Z,11.23
2018-10-05T07:56:43.241Z,11.17
2018-10-05T07:57:44.356Z,11.36
2018-10-05T07:58:43.161Z,11.41
2018-10-05T07:59:43.312Z,11.49
2018-10-05T08:00:43.123Z,11.60
2018-10-05T08:01:43.224Z,11.51
2018-10-05T08:02:43.080Z,11.53
2018-10-05T08:03:47.956Z,11.54
2018-10-05T08:04:43.019Z,11.64
2018-10-05T08:05:44.090Z,11.66
2018-10-05T08:06:42.968Z,11.70
2018-10-05T08:07:43.056Z,11.78
2018-10-05T08:08:42.886Z,11.88
2018-10-05T08:09:43.030Z,11.90
2018-10-05T08:10:42.845Z,12.04
2018-10-05T08:11:42.942Z,12.08
2018-10-05T08:12:42.759Z,12.18
2018-10-05T08:13:42.831Z,12.16
2018-10-05T08:14:42.736Z,12.23
2018-10-05T08:15:42.779Z,12.29
2018-10-05T08:16:42.652Z,12.40
2018-10-05T08:17:42.649Z,12.46
2018-10-05T08:18:42.600Z,12.59
2018-10-05T08:19:42.678Z,12.62
2018-10-05T08:20:42.537Z,12.70
2018-10-05T08:21:42.699Z,12.77
2018-10-05T08:22:42.511Z,12.79
2018-10-05T08:23:42.484Z,12.79
2018-10-05T08:24:42.426Z,12.84
2018-10-05T08:25:42.510Z,12.95
2018-10-05T08:26:42.366Z,12.96
2018-10-05T08:27:42.421Z,13.09
2018-10-05T08:28:42.339Z,13.19
2018-10-05T08:29:42.307Z,13.21
2018-10-05T08:30:42.254Z,13.19
2018-10-05T08:31:42.309Z,13.31
2018-10-05T08:32:42.213Z,13.35
2018-10-05T08:33:42.261Z,13.39
2018-10-05T08:34:42.145Z,13.36
2018-10-05T08:35:42.165Z,13.53
2018-10-05T08:36:42.074Z,13.62
2018-10-05T08:37:42.179Z,13.57
2018-10-05T08:38:42.029Z,13.68
2018-10-05T08:39:42.109Z,13.68
2018-10-05T08:40:41.966Z,13.75
2018-10-05T08:41:42.005Z,13.80
2018-10-05T08:42:41.910Z,13.84
2018-10-05T08:43:42.013Z,13.86
2018-10-05T08:44:41.847Z,13.93
2018-10-05T08:45:41.876Z,14.02
2018-10-05T08:46:41.964Z,14.04
2018-10-05T08:47:41.780Z,14.29
2018-10-05T08:48:41.831Z,14.36
2018-10-05T08:49:41.717Z,14.52
2018-10-05T08:50:41.728Z,14.45
2018-10-05T08:51:41.686Z,14.69
2018-10-05T08:52:41.733Z,14.71
2018-10-05T08:53:41.600Z,14.95
2018-10-05T08:54:42.698Z,14.95
2018-10-05T08:55:41.545Z,15.05
2018-10-05T08:56:41.570Z,15.18
2018-10-05T08:57:41.494Z,15.20
2018-10-05T08:58:42.484Z,15.19
2018-10-05T08:59:41.430Z,15.38
2018-10-05T09:00:42.519Z,15.34
2018-10-05T09:01:41.390Z,15.23
2018-10-05T09:02:41.386Z,15.30
2018-10-05T09:03:41.327Z,15.33
2018-10-05T09:04:42.357Z,15.33
2018-10-05T09:05:41.329Z,15.28
2018-10-05T09:06:41.307Z,15.28
2018-10-05T09:07:41.217Z,15.31
2018-10-05T09:08:43.275Z,15.46
2018-10-05T09:09:41.201Z,15.44
2018-10-05T09:10:41.266Z,15.52
2018-10-05T09:11:41.099Z,15.67
2018-10-05T09:12:41.168Z,15.67
2018-10-05T09:13:41.053Z,15.74
2018-10-05T09:14:41.045Z,16.06
2018-10-05T09:15:40.983Z,16.07
2018-10-05T09:16:40.963Z,16.10
2018-10-05T09:17:40.977Z,16.16
2018-10-05T09:18:40.903Z,16.32
2018-10-05T09:19:40.893Z,16.33
2018-10-05T09:20:40.970Z,16.51
2018-10-05T09:21:40.829Z,16.47
2018-10-05T09:22:40.858Z,16.55
2018-10-05T09:23:40.866Z,16.55
2018-10-05T09:24:40.868Z,16.70
2018-10-05T09:25:40.709Z,16.67
2018-10-05T09:26:40.787Z,16.82
2018-10-05T09:27:40.650Z,16.78
2018-10-05T09:28:40.675Z,16.95
2018-10-05T09:29:40.595Z,17.12
2018-10-05T09:30:41.660Z,17.20
2018-10-05T09:31:40.540Z,17.32
2018-10-05T09:32:41.527Z,17.35
2018-10-05T09:33:40.485Z,17.43
2018-10-05T09:34:40.587Z,17.42
2018-10-05T09:35:40.422Z,17.47
2018-10-05T09:36:40.490Z,17.45
2018-10-05T09:37:40.422Z,17.39
2018-10-05T09:38:40.438Z,17.45
2018-10-05T09:39:40.512Z,17.53
2018-10-05T09:40:40.274Z,17.60
2018-10-05T09:41:40.263Z,17.58
2018-10-05T09:42:41.286Z,17.51
2018-10-05T09:43:40.268Z,17.46
2018-10-05T09:44:40.282Z,17.54
2018-10-05T09:45:40.138Z,17.63
2018-10-05T09:46:40.111Z,17.71
2018-10-05T09:47:41.115Z,17.74
2018-10-05T09:48:40.055Z,17.81
2018-10-05T09:49:40.038Z,17.81
2018-10-05T09:50:40.020Z,17.91
2018-10-05T09:51:40.000Z,17.95
2018-10-05T09:52:39.995Z,17.99
2018-10-05T09:53:39.914Z,18.11
2018-10-05T09:54:39.997Z,18.10
2018-10-05T09:55:39.874Z,18.13
2018-10-05T09:56:39.885Z,18.29
2018-10-05T09:57:39.809Z,18.29
2018-10-05T09:58:39.798Z,18.31
2018-10-05T09:59:39.786Z,18.31
2018-10-05T10:00:39.817Z,18.44
2018-10-05T10:01:39.692Z,18.42
2018-10-05T10:02:40.747Z,18.54
2018-10-05T10:03:39.667Z,18.62
2018-10-05T10:04:39.645Z,18.66
2018-10-05T10:05:39.583Z,18.74
2018-10-05T10:06:39.651Z,18.71
2018-10-05T10:07:39.521Z,18.60
2018-10-05T10:08:40.616Z,18.68
2018-10-05T10:09:39.471Z,18.71
2018-10-05T10:10:40.492Z,18.87
2018-10-05T10:11:39.438Z,18.99
2018-10-05T10:12:39.505Z,18.91
2018-10-05T10:13:39.384Z,19.12
2018-10-05T10:14:39.400Z,19.13
2018-10-05T10:15:39.306Z,19.27
2018-10-05T10:16:40.320Z,19.43
2018-10-05T10:17:39.296Z,19.52
2018-10-05T10:18:39.331Z,19.55
2018-10-05T10:19:39.197Z,19.60
2018-10-05T10:20:39.265Z,19.53
2018-10-05T10:21:39.143Z,19.46
2018-10-05T10:22:41.230Z,19.46
2018-10-05T10:23:39.088Z,19.43
2018-10-05T10:24:39.158Z,19.49
2018-10-05T10:25:39.026Z,19.62
2018-10-05T10:26:39.059Z,19.62
2018-10-05T10:27:38.990Z,19.71
2018-10-05T10:28:39.041Z,19.75
2018-10-05T10:29:38.927Z,19.85
2018-10-05T10:30:39.894Z,19.86
2018-10-05T10:31:38.861Z,19.82
2018-10-05T10:32:39.918Z,19.79
2018-10-05T10:33:38.924Z,19.80
2018-10-05T10:34:38.820Z,19.76
2018-10-05T10:35:38.758Z,19.78
2018-10-05T10:36:38.927Z,19.89
2018-10-05T10:37:38.704Z,19.94
2018-10-05T10:38:38.723Z,19.98
2018-10-05T10:39:38.660Z,20.01
2018-10-05T10:40:38.639Z,20.07
2018-10-05T10:41:38.586Z,20.20
2018-10-05T10:42:38.705Z,20.19
2018-10-05T10:43:38.536Z,20.25
2018-10-05T10:44:39.593Z,20.26
2018-10-05T10:45:38.478Z,20.41
2018-10-05T10:46:38.479Z,20.44
2018-10-05T10:47:38.421Z,20.56
2018-10-05T10:48:38.484Z,20.73
2018-10-05T10:49:38.371Z,20.71
2018-10-05T10:50:38.395Z,20.63
2018-10-05T10:51:38.311Z,20.72
2018-10-05T10:52:40.353Z,20.68
2018-10-05T10:53:38.272Z,20.76
2018-10-05T10:54:38.317Z,20.81
2018-10-05T10:55:38.209Z,20.87
2018-10-05T10:56:39.251Z,20.91
2018-10-05T10:57:38.148Z,20.93
2018-10-05T10:58:38.150Z,21.03
2018-10-05T10:59:38.106Z,21.00
2018-10-05T11:00:39.195Z,21.06
2018-10-05T11:01:38.041Z,21.19
2018-10-05T11:02:38.074Z,21.37
2018-10-05T11:03:37.989Z,21.45
2018-10-05T11:04:38.068Z,21.51
2018-10-05T11:05:37.944Z,21.58
2018-10-05T11:06:38.011Z,21.70
2018-10-05T11:07:37.881Z,21.77
2018-10-05T11:08:38.942Z,21.75
2018-10-05T11:09:37.829Z,21.82
2018-10-05T11:10:39.872Z,21.86
2018-10-05T11:11:37.780Z,21.83
2018-10-05T11:12:38.867Z,21.82
2018-10-05T11:13:37.728Z,21.74
2018-10-05T11:14:37.747Z,21.81
2018-10-05T11:15:37.674Z,21.73
2018-10-05T11:16:38.685Z,21.77
2018-10-05T11:17:37.613Z,21.71
2018-10-05T11:18:37.676Z,21.75
2018-10-05T11:19:37.663Z,21.77
2018-10-05T11:20:39.638Z,21.79
2018-10-05T11:21:37.577Z,21.75
2018-10-05T11:22:37.596Z,21.85
2018-10-05T11:23:37.460Z,21.83
2018-10-05T11:24:38.482Z,21.86
2018-10-05T11:25:37.412Z,21.85
2018-10-05T11:26:39.472Z,21.91
2018-10-05T11:27:37.356Z,21.98
2018-10-05T11:28:37.335Z,21.96
2018-10-05T11:29:37.437Z,21.91
2018-10-05T11:30:37.287Z,21.83
2018-10-05T11:31:37.367Z,21.86
2018-10-05T11:32:37.225Z,21.89
2018-10-05T11:33:37.279Z,21.70
2018-10-05T11:34:37.167Z,21.86
2018-10-05T11:35:37.215Z,21.91
2018-10-05T11:36:37.134Z,22.02
2018-10-05T11:37:38.122Z,22.01
2018-10-05T11:38:37.064Z,21.98
2018-10-05T11:39:37.107Z,22.15
2018-10-05T11:40:37.053Z,22.26
2018-10-05T11:41:37.050Z,22.29
2018-10-05T11:42:36.971Z,22.29
2018-10-05T11:43:38.052Z,22.45
2018-10-05T11:44:36.914Z,22.41
2018-10-05T11:45:37.960Z,22.42
2018-10-05T11:46:36.855Z,22.41
2018-10-05T11:47:36.846Z,22.44
2018-10-05T11:48:36.815Z,22.31
2018-10-05T11:49:36.885Z,22.31
2018-10-05T11:50:36.783Z,22.41
2018-10-05T11:51:36.796Z,22.39
2018-10-05T11:52:36.747Z,22.46
2018-10-05T11:53:37.716Z,22.54
2018-10-05T11:54:36.655Z,22.57
2018-10-05T11:55:36.701Z,22.49
2018-10-05T11:56:36.589Z,22.54
2018-10-05T11:57:36.617Z,22.60
2018-10-05T11:58:36.558Z,22.67
2018-10-05T11:59:36.669Z,22.54
2018-10-05T12:00:36.496Z,22.56
2018-10-05T12:01:36.832Z,22.54
2018-10-05T12:02:36.445Z,22.56
2018-10-05T12:03:36.459Z,22.54
2018-10-05T12:04:36.383Z,22.57
2018-10-05T12:05:36.457Z,22.59
2018-10-05T12:06:36.330Z,22.57
2018-10-05T12:07:36.375Z,22.66
2018-10-05T12:08:36.282Z,22.56
2018-10-05T12:09:36.388Z,22.54
2018-10-05T12:10:36.229Z,22.60
2018-10-05T12:11:37.318Z,22.59
2018-10-05T12:12:36.173Z,22.54
2018-10-05T12:13:36.242Z,22.63
2018-10-05T12:14:36.146Z,22.66
2018-10-05T12:15:37.161Z,22.74
2018-10-05T12:16:36.085Z,22.82
2018-10-05T12:17:36.136Z,22.88
2018-10-05T12:19:22.929Z,22.86
2018-10-05T12:20:24.891Z,22.91
2018-10-05T12:22:17.112Z,22.88
2018-10-05T12:23:17.122Z,22.81
2018-10-05T12:24:17.035Z,22.85
2018-10-05T12:25:17.004Z,22.86
2018-10-05T12:26:16.995Z,22.74
2018-10-05T12:27:17.025Z,22.76
2018-10-05T12:28:16.926Z,22.89
2018-10-05T12:29:17.032Z,22.76
2018-10-05T12:30:16.980Z,22.76
2018-10-05T12:31:17.946Z,22.88
2018-10-05T12:32:16.841Z,22.85
2018-10-05T12:33:16.858Z,22.97
2018-10-05T12:34:16.780Z,22.96
2018-10-05T12:35:16.860Z,22.96
2018-10-05T12:36:16.727Z,22.97
2018-10-05T12:37:16.805Z,23.03
2018-10-05T12:38:16.685Z,23.00
2018-10-05T12:39:16.712Z,23.07
2018-10-05T12:40:16.630Z,23.12
2018-10-05T12:41:17.715Z,23.19
2018-10-05T12:42:16.581Z,23.29
2018-10-05T12:43:16.615Z,23.32
2018-10-05T12:44:16.538Z,23.23
2018-10-05T12:45:16.626Z,23.25
2018-10-05T12:46:16.492Z,23.09
2018-10-05T12:47:16.546Z,23.07
2018-10-05T12:48:16.425Z,23.03
2018-10-05T12:49:16.431Z,23.03
2018-10-05T12:50:16.495Z,23.12
2018-10-05T12:51:17.486Z,23.07
2018-10-05T12:52:16.327Z,23.14
2018-10-05T12:53:21.468Z,23.11
2018-10-05T12:54:16.289Z,23.21
2018-10-05T12:55:18.410Z,23.14
2018-10-05T12:56:16.253Z,23.19
2018-10-05T12:57:17.303Z,23.16
2018-10-05T12:58:16.249Z,23.23
2018-10-05T12:59:17.311Z,23.22
2018-10-05T13:00:16.141Z,23.26
2018-10-05T13:01:16.202Z,23.23
2018-10-05T13:02:16.082Z,23.26
2018-10-05T13:03:17.221Z,23.37
2018-10-05T13:04:16.025Z,23.31
2018-10-05T13:05:27.011Z,23.31
2018-10-05T13:06:15.999Z,23.42
2018-10-05T13:07:16.035Z,23.37
2018-10-05T13:08:15.918Z,23.45
2018-10-05T13:09:16.025Z,23.37
2018-10-05T13:10:15.880Z,23.47